Time;durP1;ratioP1;P1;durP2;ratioP2;P2;SDS_P1;SDS_P2;PMS_P1;PMS_P2;Temp;Humidity;BMP_temperature;BMP_pressure;BME280_temperature;BME280_humidity;BME280_pressure;Samples;Min_cycle;Max_cycle;Signal;HPM_P1;HPM_P2
2021/04/24 00:04:33;;;;;;;12.05;7.65;;;;;;;10.55;45.57;101064.06;10295495;28;20113;-58
2021/04/24 00:09:34;;;;;;;10.80;7.55;;;;;;;10.49;46.07;101060.00;10297275;28;20427;-58
2021/04/24 00:14:35;;;;;;;13.57;7.30;;;;;;;10.46;45.29;101033.59;10297270;28;20455;-57
2021/04/24 00:19:36;;;;;;;11.35;7.55;;;;;;;10.31;45.97;101059.41;10289948;28;20058;-55
2021/04/24 00:24:37;;;;;;;10.57;7.93;;;;;;;10.20;46.51;101048.63;10299251;28;20744;-59
2021/04/24 00:29:38;;;;;;;9.27;7.45;;;;;;;10.20;45.85;101038.84;10299811;28;20110;-59
2021/04/24 00:34:39;;;;;;;9.65;7.55;;;;;;;10.29;46.26;101057.81;10296483;28;20060;-57
2021/04/24 00:39:40;;;;;;;8.23;6.97;;;;;;;10.39;46.00;101053.63;10284234;28;20510;-58
2021/04/24 00:44:49;;;;;;;10.93;6.90;;;;;;;10.22;46.03;101036.94;10289628;28;20058;-59
2021/04/24 00:49:51;;;;;;;12.55;7.20;;;;;;;10.22;46.64;101042.25;10297371;28;20050;-57
2021/04/24 00:54:52;;;;;;;8.40;6.38;;;;;;;10.12;46.34;101043.81;10286037;28;20213;-57
2021/04/24 00:59:53;;;;;;;8.38;7.30;;;;;;;10.10;46.90;101040.38;10289849;28;20039;-56
2021/04/24 01:04:54;;;;;;;8.60;7.03;;;;;;;10.15;46.10;101037.41;10288760;28;20149;-58
2021/04/24 01:09:55;;;;;;;12.15;8.57;;;;;;;10.10;46.50;101032.41;10303104;28;20120;-60
2021/04/24 01:14:56;;;;;;;11.63;7.53;;;;;;;9.94;46.77;101045.00;10302449;28;20149;-58
2021/04/24 01:19:57;;;;;;;11.38;7.78;;;;;;;9.86;47.32;101041.06;10300294;28;20046;-60
2021/04/24 01:24:58;;;;;;;12.52;7.40;;;;;;;9.95;46.97;101041.41;10297948;28;20765;-57
2021/04/24 01:30:00;;;;;;;11.98;7.85;;;;;;;9.81;47.38;101040.50;10300858;28;20078;-58
2021/04/24 01:35:01;;;;;;;10.70;7.40;;;;;;;9.81;47.70;101040.50;10303526;28;21353;-58
2021/04/24 01:40:06;;;;;;;12.40;8.60;;;;;;;9.61;48.28;101039.13;10300584;28;20061;-58
2021/04/24 01:45:09;;;;;;;10.45;8.65;;;;;;;9.69;47.73;101042.13;10299131;28;20046;-59
2021/04/24 01:50:13;;;;;;;12.18;8.88;;;;;;;9.57;48.00;101040.28;10304969;28;20546;-58
2021/04/24 01:55:27;;;;;;;11.35;7.97;;;;;;;9.62;48.17;101042.63;10302578;28;20057;-58
2021/04/24 02:00:39;;;;;;;11.25;8.20;;;;;;;9.60;48.36;101039.22;10295819;28;20110;-58
2021/04/24 02:05:42;;;;;;;12.98;9.02;;;;;;;9.55;48.29;101031.56;10293186;28;20116;-58
2021/04/24 02:10:49;;;;;;;10.65;8.50;;;;;;;9.49;48.35;101032.78;10301790;28;20066;-59
2021/04/24 02:15:50;;;;;;;12.73;9.07;;;;;;;9.50;48.70;101025.66;10293570;28;20046;-58
2021/04/24 02:20:51;;;;;;;12.13;8.48;;;;;;;9.51;48.43;101028.22;10295721;28;20053;-57
2021/04/24 02:25:52;;;;;;;14.13;8.95;;;;;;;9.39;48.70;101007.75;10296050;28;20049;-59
2021/04/24 02:30:53;;;;;;;12.85;9.23;;;;;;;9.51;48.12;101025.56;10303306;28;20058;-59
2021/04/24 02:36:01;;;;;;;9.43;8.07;;;;;;;9.45;48.77;101023.28;10298195;28;20728;-58
2021/04/24 02:41:04;;;;;;;12.77;8.82;;;;;;;9.46;48.40;101022.34;10297385;28;20084;-58
2021/04/24 02:46:07;;;;;;;11.57;8.85;;;;;;;9.34;48.29;100993.91;10306966;28;20629;-57
2021/04/24 02:51:08;;;;;;;10.77;8.55;;;;;;;9.49;48.39;101016.84;10302268;28;20058;-59
2021/04/24 02:56:09;;;;;;;12.82;9.20;;;;;;;9.45;48.78;101020.63;10295233;28;20377;-59
2021/04/24 03:01:09;;;;;;;12.32;9.18;;;;;;;9.46;48.82;101024.16;10296964;28;20050;-59
2021/04/24 03:06:10;;;;;;;13.35;9.20;;;;;;;9.45;48.74;101020.63;10295125;28;20046;-59
2021/04/24 03:11:11;;;;;;;13.68;9.55;;;;;;;9.47;48.47;101016.09;10290487;28;20169;-59
2021/04/24 03:16:12;;;;;;;15.05;9.75;;;;;;;9.38;48.79;101021.97;10287486;28;20081;-61
2021/04/24 03:21:14;;;;;;;13.57;9.82;;;;;;;9.39;48.77;101010.41;10298780;28;20138;-61
2021/04/24 03:26:15;;;;;;;11.50;9.43;;;;;;;9.31;48.29;100996.75;10299301;28;20046;-60
2021/04/24 03:31:17;;;;;;;12.35;9.02;;;;;;;9.37;48.81;101007.84;10298889;28;20503;-59
2021/04/24 03:36:18;;;;;;;15.05;10.43;;;;;;;9.25;48.96;101011.28;10307552;28;20081;-58
2021/04/24 03:41:20;;;;;;;11.55;9.55;;;;;;;9.27;48.89;101005.88;10304251;28;20070;-58
2021/04/24 03:46:21;;;;;;;11.23;8.68;;;;;;;9.02;48.94;101005.59;10308376;28;20081;-58
2021/04/24 03:51:22;;;;;;;10.40;8.90;;;;;;;8.98;49.54;101000.59;10303092;28;20138;-58
2021/04/24 03:56:23;;;;;;;11.45;9.23;;;;;;;9.02;49.19;101013.56;10297725;28;20465;-58
2021/04/24 04:01:24;;;;;;;12.13;9.07;;;;;;;9.12;49.16;101019.16;10302585;28;20070;-58
2021/04/24 04:06:25;;;;;;;12.00;9.45;;;;;;;9.02;49.67;101018.00;10304469;28;20638;-58
2021/04/24 04:11:26;;;;;;;12.07;9.23;;;;;;;8.97;49.74;101026.25;10307921;28;20052;-58
2021/04/24 04:16:27;;;;;;;11.52;8.93;;;;;;;8.98;49.19;101022.66;10300500;28;20085;-59
2021/04/24 04:21:28;;;;;;;11.18;9.25;;;;;;;8.96;49.58;101021.91;10303288;28;20066;-59
2021/04/24 04:26:29;;;;;;;14.77;9.40;;;;;;;8.85;49.91;101019.91;10303844;28;20054;-58
2021/04/24 04:31:30;;;;;;;14.15;9.00;;;;;;;8.92;49.60;101024.88;10303689;28;20404;-58
2021/04/24 04:36:34;;;;;;;12.13;9.68;;;;;;;8.90;49.82;101030.22;10295608;28;21068;-59
2021/04/24 04:41:35;;;;;;;14.57;9.60;;;;;;;8.96;49.48;101026.34;10301763;28;20058;-59
2021/04/24 04:46:36;;;;;;;10.55;8.07;;;;;;;8.84;49.63;101028.84;10304246;28;20054;-59
2021/04/24 04:51:37;;;;;;;13.57;8.80;;;;;;;8.81;49.94;101031.69;10306489;28;20060;-57
2021/04/24 04:56:38;;;;;;;13.90;9.77;;;;;;;8.58;50.41;101005.66;10309100;28;20054;-56
2021/04/24 05:01:39;;;;;;;13.27;9.05;;;;;;;8.69;49.99;101021.78;10301371;28;20124;-56
2021/04/24 05:06:59;;;;;;;12.15;8.88;;;;;;;8.80;49.75;101034.44;10304744;28;20042;-57
2021/04/24 05:12:00;;;;;;;13.60;8.88;;;;;;;8.75;50.32;101032.06;10308405;28;20089;-56
2021/04/24 05:17:01;;;;;;;15.30;10.45;;;;;;;8.84;50.17;101039.44;10291729;28;20054;-59
2021/04/24 05:22:03;;;;;;;14.20;9.00;;;;;;;8.77;49.48;101040.75;10297649;28;20058;-56
2021/04/24 05:27:04;;;;;;;14.25;9.70;;;;;;;8.72;50.05;101034.91;10295680;28;20066;-57
2021/04/24 05:32:06;;;;;;;12.20;9.05;;;;;;;8.70;50.04;101030.63;10296999;28;20054;-56
2021/04/24 05:37:07;;;;;;;12.73;8.88;;;;;;;8.77;50.11;101040.75;10297723;28;20260;-57
2021/04/24 05:42:10;;;;;;;12.35;9.05;;;;;;;8.95;49.66;101059.19;10305121;28;20153;-57
2021/04/24 05:47:11;;;;;;;13.07;9.38;;;;;;;9.11;49.79;101054.66;10298416;28;20078;-57
2021/04/24 05:52:12;;;;;;;13.93;9.50;;;;;;;9.04;49.91;101063.94;10293571;28;20089;-57
2021/04/24 05:57:13;;;;;;;12.30;10.15;;;;;;;9.03;50.28;101046.28;10302945;28;20070;-57
2021/04/24 06:02:14;;;;;;;11.38;8.90;;;;;;;9.24;50.14;101059.19;10314059;28;20216;-57
2021/04/24 06:07:15;;;;;;;13.13;8.38;;;;;;;9.27;49.96;101064.31;10293880;28;20050;-57
2021/04/24 06:12:16;;;;;;;12.23;10.15;;;;;;;9.33;50.42;101064.78;10288276;28;20058;-56
2021/04/24 06:17:17;;;;;;;12.10;9.45;;;;;;;9.50;49.66;101047.78;10290256;28;20073;-57
2021/04/24 06:22:19;;;;;;;12.55;8.40;;;;;;;9.63;49.01;101069.13;10272668;28;20559;-58
2021/04/24 06:27:20;;;;;;;12.93;9.30;;;;;;;9.67;48.66;101035.22;10260662;28;20054;-58
2021/04/24 06:32:21;;;;;;;13.23;8.80;;;;;;;10.05;48.41;101067.28;10258466;28;20043;-57
2021/04/24 06:37:22;;;;;;;15.20;9.95;;;;;;;10.29;48.20;101060.47;10261381;28;20058;-56
2021/04/24 06:42:24;;;;;;;15.60;9.05;;;;;;;10.41;47.58;101073.00;10257659;28;20046;-56
2021/04/24 06:47:25;;;;;;;11.60;8.40;;;;;;;10.39;47.96;101069.59;10257117;28;20712;-57
2021/04/24 06:52:27;;;;;;;12.45;9.75;;;;;;;10.65;47.44;101069.66;10258388;28;20066;-57
2021/04/24 06:57:28;;;;;;;12.52;8.90;;;;;;;10.89;46.68;101067.94;10282406;28;20460;-57
2021/04/24 07:02:29;;;;;;;12.00;9.07;;;;;;;11.08;46.34;101067.53;10265518;28;20059;-58
2021/04/24 07:07:30;;;;;;;9.52;8.07;;;;;;;11.93;48.15;101072.19;10267811;28;20049;-55
2021/04/24 07:12:31;;;;;;;14.10;8.63;;;;;;;12.30;45.52;101065.97;10258644;28;20105;-55
2021/04/24 07:17:33;;;;;;;11.95;8.43;;;;;;;12.81;43.06;101060.28;10258838;28;20124;-57
2021/04/24 07:22:35;;;;;;;11.90;9.00;;;;;;;12.28;43.48;101058.06;10265329;28;21184;-57
2021/04/24 07:27:36;;;;;;;14.05;8.70;;;;;;;12.02;44.12;101062.66;10268488;28;20054;-59
2021/04/24 07:32:38;;;;;;;10.88;7.88;;;;;;;12.19;43.48;101058.78;10264783;28;20054;-56
2021/04/24 07:37:39;;;;;;;8.98;7.28;;;;;;;11.98;43.67;101056.72;10267779;28;20058;-56
2021/04/24 07:42:40;;;;;;;10.45;7.82;;;;;;;11.92;44.20;101059.81;10264599;28;20049;-58
2021/04/24 07:47:44;;;;;;;11.35;8.18;;;;;;;12.24;44.21;101056.59;10278877;28;20050;-57
2021/04/24 07:52:46;;;;;;;11.60;8.43;;;;;;;12.63;42.72;101059.88;10267404;28;20089;-58
2021/04/24 07:57:47;;;;;;;12.40;7.13;;;;;;;12.84;41.91;101043.19;10265380;28;20488;-58
2021/04/24 08:02:48;;;;;;;9.35;6.63;;;;;;;12.50;45.95;101041.25;10259369;28;20116;-54
2021/04/24 08:07:49;;;;;;;9.45;7.40;;;;;;;13.23;42.11;101062.41;10257429;28;20260;-49
2021/04/24 08:12:50;;;;;;;12.13;7.05;;;;;;;13.72;42.04;101053.19;10259133;28;20057;-49
2021/04/24 08:17:51;;;;;;;11.18;7.72;;;;;;;13.99;40.40;101062.59;10257427;28;20132;-49
2021/04/24 08:22:52;;;;;;;8.00;6.65;;;;;;;14.22;39.78;101051.81;10255977;28;20725;-47
2021/04/24 08:27:53;;;;;;;11.38;7.35;;;;;;;14.50;39.22;101053.88;10258433;28;20058;-51
2021/04/24 08:32:54;;;;;;;9.40;7.15;;;;;;;14.79;38.35;101061.28;10258494;28;20066;-52
2021/04/24 08:37:55;;;;;;;11.00;6.78;;;;;;;14.94;38.74;101053.75;10259951;28;20130;-51
2021/04/24 08:42:56;;;;;;;7.25;5.95;;;;;;;14.81;38.79;101021.78;10255282;28;20093;-48
2021/04/24 08:47:57;;;;;;;9.75;6.47;;;;;;;15.06;37.40;101051.84;10257002;28;20630;-49
2021/04/24 08:53:01;;;;;;;7.60;4.85;;;;;;;15.17;37.47;101030.31;10258761;28;20051;-52
2021/04/24 08:58:04;;;;;;;10.48;5.55;;;;;;;15.38;36.18;101045.50;10260225;28;20058;-48
2021/04/24 09:03:10;;;;;;;9.20;5.67;;;;;;;15.49;36.41;101032.00;10258879;28;20061;-51
2021/04/24 09:08:12;;;;;;;7.55;4.38;;;;;;;15.69;35.48;101029.34;10272314;28;20078;-46
2021/04/24 09:13:22;;;;;;;11.18;5.82;;;;;;;15.74;35.97;101019.03;10256837;28;20078;-52
2021/04/24 09:18:26;;;;;;;7.55;5.50;;;;;;;16.07;35.28;101031.25;10258228;28;20134;-50
2021/04/24 09:23:31;;;;;;;7.90;5.32;;;;;;;16.43;35.25;101019.94;10252705;28;20216;-53
2021/04/24 09:28:38;;;;;;;12.48;5.80;;;;;;;16.77;35.02;101016.78;10255179;28;20503;-47
2021/04/24 09:33:41;;;;;;;8.77;5.38;;;;;;;17.04;32.93;101024.09;10255594;28;20051;-45
2021/04/24 09:38:45;;;;;;;10.32;6.32;;;;;;;17.26;32.10;101009.44;10253328;28;20133;-48
2021/04/24 09:43:52;;;;;;;12.38;6.72;;;;;;;17.45;33.34;101013.84;10252271;28;20073;-48
2021/04/24 09:49:12;;;;;;;7.05;5.60;;;;;;;17.81;31.87;101010.38;10252923;28;20464;-47
2021/04/24 09:54:16;;;;;;;7.15;5.32;;;;;;;18.28;31.67;101006.63;10255124;28;20076;-47
2021/04/24 09:59:18;;;;;;;9.65;6.50;;;;;;;18.84;30.64;101001.81;10256387;28;20073;-57
2021/04/24 10:04:19;;;;;;;7.93;6.88;;;;;;;18.91;29.45;100989.41;10265988;28;20132;-58
2021/04/24 10:09:29;;;;;;;10.55;7.35;;;;;;;19.55;28.69;100981.75;10257842;28;20066;-57
2021/04/24 10:14:49;;;;;;;14.95;7.57;;;;;;;19.12;28.42;100980.06;10260271;28;20046;-56
2021/04/24 10:19:50;;;;;;;9.88;6.97;;;;;;;19.48;29.17;100982.56;10253482;28;20062;-57
2021/04/24 10:24:52;;;;;;;9.93;7.60;;;;;;;23.35;23.85;100970.75;10258394;28;20062;-57
2021/04/24 10:29:54;;;;;;;8.50;7.22;;;;;;;26.76;19.87;100969.84;10258613;28;20089;-57
2021/04/24 10:34:55;;;;;;;8.95;6.80;;;;;;;23.45;22.13;100957.72;10254453;28;20046;-57
2021/04/24 10:40:04;;;;;;;9.07;6.82;;;;;;;21.69;24.76;100929.13;10252528;28;20120;-59
2021/04/24 10:45:06;;;;;;;8.32;5.93;;;;;;;22.38;24.69;100953.50;10268340;28;20081;-56
2021/04/24 10:50:08;;;;;;;7.63;6.88;;;;;;;24.06;23.56;100944.75;10253045;28;20564;-56
2021/04/24 10:55:12;;;;;;;8.60;6.80;;;;;;;27.64;18.30;100948.53;10254528;28;20673;-56
2021/04/24 11:00:19;;;;;;;7.88;6.90;;;;;;;29.99;16.39;100941.38;10257501;28;20062;-56
2021/04/24 11:05:29;;;;;;;8.40;6.72;;;;;;;30.58;15.50;100934.03;10256867;28;20051;-55
2021/04/24 11:10:30;;;;;;;7.22;6.55;;;;;;;29.50;17.09;100936.81;10258878;28;20050;-57
2021/04/24 11:15:32;;;;;;;7.18;6.35;;;;;;;29.39;16.83;100937.59;10256177;28;20098;-58
2021/04/24 11:20:49;;;;;;;8.52;6.40;;;;;;;30.68;15.14;100934.22;10262383;28;20139;-56
2021/04/24 11:25:50;;;;;;;7.88;7.07;;;;;;;32.21;14.47;100922.84;10254869;28;20049;-57
2021/04/24 11:31:02;;;;;;;9.63;6.78;;;;;;;32.69;13.64;100910.34;10255103;28;20160;-59
2021/04/24 11:36:27;;;;;;;7.13;6.25;;;;;;;33.08;12.75;100921.28;10256326;28;20061;-57
2021/04/24 11:41:36;;;;;;;7.10;6.07;;;;;;;31.43;14.63;100911.56;10259531;28;20648;-57
2021/04/24 11:46:39;;;;;;;8.52;6.43;;;;;;;28.80;16.66;100907.13;10258203;28;20062;-56
2021/04/24 11:51:47;;;;;;;8.07;6.28;;;;;;;26.88;19.04;100920.06;10260996;28;20066;-56
2021/04/24 11:56:49;;;;;;;6.80;5.80;;;;;;;25.97;20.36;100889.69;10265064;28;20074;-57
2021/04/24 12:02:00;;;;;;;5.68;5.18;;;;;;;26.07;19.63;100903.78;10268968;28;20082;-56
2021/04/24 12:07:15;;;;;;;7.03;6.33;;;;;;;25.67;20.11;100894.72;10275332;28;20086;-57
2021/04/24 12:12:18;;;;;;;8.13;6.70;;;;;;;24.84;20.77;100893.81;10257158;28;20058;-56
2021/04/24 12:17:19;;;;;;;12.65;6.75;;;;;;;23.53;22.56;100888.00;10251530;28;20101;-57
2021/04/24 12:22:21;;;;;;;8.20;6.63;;;;;;;23.60;21.80;100889.72;10246184;28;20053;-57
2021/04/24 12:27:44;;;;;;;6.82;5.40;;;;;;;23.94;21.94;100880.00;10258254;28;20066;-57
2021/04/24 12:32:49;;;;;;;7.45;6.13;;;;;;;22.98;22.60;100880.22;10259516;28;20054;-57
2021/04/24 12:38:10;;;;;;;8.10;6.82;;;;;;;22.84;22.09;100876.50;10260840;28;20129;-55
2021/04/24 12:43:15;;;;;;;8.98;6.18;;;;;;;22.76;22.29;100871.22;10257531;28;20130;-57
2021/04/24 12:48:40;;;;;;;6.97;5.95;;;;;;;22.64;22.75;100859.13;10259987;28;20062;-56
2021/04/24 12:53:45;;;;;;;8.63;5.43;;;;;;;22.25;23.21;100863.78;10265659;28;20038;-57
2021/04/24 12:58:49;;;;;;;7.38;6.07;;;;;;;22.30;22.96;100850.50;10258324;28;20059;-57
2021/04/24 13:03:53;;;;;;;8.63;5.78;;;;;;;22.34;22.76;100810.31;10257126;28;20050;-56
2021/04/24 13:09:04;;;;;;;8.57;5.72;;;;;;;22.06;23.60;100810.94;10257326;28;20073;-57
2021/04/24 13:14:08;;;;;;;7.97;6.15;;;;;;;21.88;24.35;100835.69;10263693;28;20054;-57
2021/04/24 13:19:10;;;;;;;8.80;5.63;;;;;;;21.48;23.79;100830.41;10276317;28;20055;-57
2021/04/24 13:24:16;;;;;;;6.03;4.53;;;;;;;21.44;23.67;100829.06;10264351;28;20771;-57
2021/04/24 13:29:19;;;;;;;6.25;4.75;;;;;;;21.42;23.60;100795.91;10262416;28;20061;-59
2021/04/24 13:34:20;;;;;;;;;;;;;;;21.47;23.77;100817.88;10256736;28;20043;-57
2021/04/24 13:39:21;;;;;;;6.13;4.43;;;;;;;20.99;24.05;100820.75;10264209;28;19930;-56
2021/04/24 13:44:30;;;;;;;6.40;4.28;;;;;;;20.77;23.88;100808.00;10258073;28;20658;-56
2021/04/24 13:49:33;;;;;;;5.28;4.05;;;;;;;21.03;23.93;100815.81;10265816;28;20050;-57
2021/04/24 13:54:34;;;;;;;6.50;4.10;;;;;;;21.18;23.90;100796.94;10264508;28;20058;-57
2021/04/24 13:59:35;;;;;;;5.95;4.60;;;;;;;21.21;24.17;100795.75;10266698;28;20050;-57
2021/04/24 14:04:38;;;;;;;5.57;3.97;;;;;;;21.06;24.19;100791.09;10263956;28;20420;-57
2021/04/24 14:09:39;;;;;;;6.65;4.72;;;;;;;20.88;25.27;100790.53;10261816;28;20444;-55
2021/04/24 14:14:41;;;;;;;5.55;4.22;;;;;;;20.87;24.69;100787.00;10254442;28;20046;-57
2021/04/24 14:19:42;;;;;;;4.50;3.08;;;;;;;20.72;25.23;100778.78;10253677;28;20105;-56
2021/04/24 14:24:44;;;;;;;4.68;3.53;;;;;;;19.93;26.36;100776.84;10256954;28;20043;-56
2021/04/24 14:29:45;;;;;;;5.07;3.15;;;;;;;19.70;26.78;100774.00;10255802;28;20062;-56
2021/04/24 14:34:46;;;;;;;5.13;3.70;;;;;;;18.91;28.06;100754.72;10254788;28;20054;-56
2021/04/24 14:39:47;;;;;;;5.93;3.33;;;;;;;18.94;28.06;100758.97;10252779;28;20062;-57
2021/04/24 14:44:48;;;;;;;4.53;3.13;;;;;;;18.99;27.99;100751.19;10252070;28;20062;-57
2021/04/24 14:49:49;;;;;;;4.28;3.17;;;;;;;18.53;28.35;100756.97;10248583;28;20062;-56
2021/04/24 14:54:50;;;;;;;4.70;3.20;;;;;;;18.44;28.86;100749.88;10255320;28;20133;-57
2021/04/24 14:59:51;;;;;;;6.05;3.00;;;;;;;18.25;29.61;100724.84;10252867;28;20054;-56
2021/04/24 15:04:52;;;;;;;5.07;3.63;;;;;;;17.86;29.95;100744.16;10295216;23;20051;-71
2021/04/24 15:09:53;;;;;;;5.72;3.70;;;;;;;17.84;30.48;100741.63;10281741;28;20054;-71
2021/04/24 15:14:54;;;;;;;5.40;4.28;;;;;;;17.96;30.61;100736.84;10271178;28;20058;-70
2021/04/24 15:19:58;;;;;;;5.05;3.78;;;;;;;17.91;31.06;100747.28;10281589;28;20054;-70
2021/04/24 15:25:02;;;;;;;5.53;3.75;;;;;;;17.92;31.30;100735.47;10275068;28;20059;-69
2021/04/24 15:30:05;;;;;;;6.40;4.53;;;;;;;17.88;31.28;100739.47;10271768;28;20406;-70
2021/04/24 15:35:07;;;;;;;5.55;4.55;;;;;;;17.91;31.45;100744.56;10270266;28;20054;-71
2021/04/24 15:40:09;;;;;;;11.25;10.13;;;;;;;17.55;31.94;100733.88;10271025;28;20529;-71
2021/04/24 15:45:14;;;;;;;7.18;4.00;;;;;;;17.69;31.61;100742.38;10272416;28;20058;-70
2021/04/24 15:50:19;;;;;;;4.07;3.67;;;;;;;17.60;31.36;100731.53;10277769;28;20147;-70
2021/04/24 15:55:22;;;;;;;5.43;4.90;;;;;;;17.63;31.85;100738.47;10273703;28;20086;-70
2021/04/24 16:00:28;;;;;;;4.10;3.50;;;;;;;17.69;31.43;100739.69;10271642;28;20131;-71
2021/04/24 16:05:29;;;;;;;4.57;3.90;;;;;;;17.47;31.40;100736.50;10267440;28;20053;-72
2021/04/24 16:10:30;;;;;;;5.35;3.85;;;;;;;17.24;31.43;100733.47;10278058;28;20141;-70
2021/04/24 16:15:32;;;;;;;4.97;3.65;;;;;;;17.11;31.11;100725.78;10271925;28;20208;-71
2021/04/24 16:20:33;;;;;;;4.28;3.13;;;;;;;17.19;31.11;100719.63;10269453;28;20097;-69
2021/04/24 16:25:34;;;;;;;5.85;3.95;;;;;;;17.18;30.62;100732.25;10275694;28;20058;-70
2021/04/24 16:30:35;;;;;;;7.57;4.10;;;;;;;17.05;30.44;100723.72;10270456;28;21778;-71
2021/04/24 16:35:37;;;;;;;4.05;3.20;;;;;;;16.82;29.81;100724.16;10271447;28;20125;-72
2021/04/24 16:40:38;;;;;;;5.60;4.43;;;;;;;16.38;29.35;100706.03;10274658;28;20068;-71
2021/04/24 16:45:39;;;;;;;7.70;5.43;;;;;;;16.33;28.94;100710.16;10274958;28;22172;-71
2021/04/24 16:50:41;;;;;;;6.05;4.10;;;;;;;16.33;28.70;100718.22;10276237;28;20050;-70
2021/04/24 16:55:42;;;;;;;3.67;2.90;;;;;;;16.30;28.80;100713.16;10278987;28;20125;-71
2021/04/24 17:00:43;;;;;;;4.72;3.28;;;;;;;16.20;27.96;100714.06;10275081;28;20865;-71
2021/04/24 17:05:46;;;;;;;5.65;3.60;;;;;;;16.12;28.02;100705.88;10284855;28;20442;-71
2021/04/24 17:10:47;;;;;;;3.17;2.40;;;;;;;16.19;27.71;100717.72;10294725;28;20117;-72
2021/04/24 17:15:48;;;;;;;4.00;2.53;;;;;;;16.13;27.73;100717.50;10289274;28;20428;-71
2021/04/24 17:20:50;;;;;;;3.65;2.53;;;;;;;15.83;28.30;100719.44;10271496;28;20078;-71
2021/04/24 17:25:51;;;;;;;3.33;2.47;;;;;;;15.63;28.84;100716.78;10268170;28;20050;-71
2021/04/24 17:30:52;;;;;;;4.80;2.33;;;;;;;15.62;28.74;100715.09;10271094;28;20054;-71
2021/04/24 17:35:54;;;;;;;6.80;2.67;;;;;;;15.39;29.19;100725.31;10284466;28;20149;-71
2021/04/24 17:40:54;;;;;;;6.60;3.05;;;;;;;15.40;30.14;100726.16;10273560;28;20050;-70
2021/04/24 17:45:56;;;;;;;5.28;3.10;;;;;;;15.42;30.49;100727.69;10312392;28;20524;-71
2021/04/24 17:50:58;;;;;;;6.45;3.38;;;;;;;15.29;31.32;100719.94;10282951;28;20046;-71
2021/04/24 17:55:59;;;;;;;4.45;3.00;;;;;;;15.14;31.88;100732.94;10273214;28;20223;-71
2021/04/24 18:00:59;;;;;;;5.25;3.70;;;;;;;15.05;32.85;100731.09;10268198;28;20126;-71
2021/04/24 18:06:00;;;;;;;6.07;4.32;;;;;;;14.95;33.15;100732.94;10265777;28;20069;-71
2021/04/24 18:11:01;;;;;;;5.20;3.13;;;;;;;14.67;34.79;100736.28;10269025;28;20509;-71
2021/04/24 18:16:03;;;;;;;4.43;3.15;;;;;;;14.80;34.60;100745.91;10269255;28;20098;-69
2021/04/24 18:21:05;;;;;;;3.92;3.53;;;;;;;14.91;33.70;100745.78;10273771;28;20065;-72
2021/04/24 18:26:06;;;;;;;4.20;3.00;;;;;;;14.90;34.18;100748.59;10302988;28;20705;-72
2021/04/24 18:31:07;;;;;;;3.53;2.67;;;;;;;14.66;34.65;100745.31;10274802;28;20082;-72
2021/04/24 18:36:09;;;;;;;5.32;3.83;;;;;;;14.66;34.40;100747.16;10269956;28;20057;-74
2021/04/24 18:41:10;;;;;;;4.22;3.17;;;;;;;14.60;34.70;100745.81;10270898;28;20149;-73
2021/04/24 18:46:11;;;;;;;6.35;4.20;;;;;;;14.57;34.98;100742.59;10270618;28;20058;-73
2021/04/24 18:51:12;;;;;;;4.55;3.60;;;;;;;14.52;35.38;100744.81;10274351;28;20055;-71
2021/04/24 18:56:13;;;;;;;4.50;3.50;;;;;;;14.42;35.55;100752.84;10278201;28;20077;-72
2021/04/24 19:01:14;;;;;;;5.47;3.83;;;;;;;14.29;36.23;100753.94;10278889;28;20273;-74
2021/04/24 19:06:15;;;;;;;5.22;3.60;;;;;;;14.21;36.68;100752.91;10277806;28;20066;-75
2021/04/24 19:11:16;;;;;;;5.03;4.47;;;;;;;14.20;36.40;100761.91;10279534;28;20450;-72
2021/04/24 19:16:17;;;;;;;4.57;3.80;;;;;;;14.07;37.60;100754.97;10265622;28;20061;-70
2021/04/24 19:21:19;;;;;;;8.70;5.95;;;;;;;14.01;37.06;100770.72;10277642;28;20058;-73
2021/04/24 19:26:20;;;;;;;6.25;4.97;;;;;;;13.71;37.97;100767.88;10281581;28;20102;-72
2021/04/24 19:31:21;;;;;;;6.28;3.95;;;;;;;13.70;38.06;100776.88;10278283;28;20480;-75
2021/04/24 19:36:26;;;;;;;4.25;3.80;;;;;;;13.59;37.89;100761.75;10286744;28;20054;-77
2021/04/24 19:41:27;;;;;;;4.65;3.97;;;;;;;13.46;37.78;100776.28;10306453;28;20109;-70
2021/04/24 19:46:28;;;;;;;5.95;4.63;;;;;;;13.30;39.57;100780.22;10291786;28;20065;-73
2021/04/24 19:51:29;;;;;;;6.03;4.38;;;;;;;13.27;39.71;100769.78;10275803;28;20100;-74
2021/04/24 19:56:30;;;;;;;7.90;4.80;;;;;;;13.00;40.96;100781.78;10278433;28;20108;-72
2021/04/24 20:01:31;;;;;;;5.38;4.13;;;;;;;12.86;41.64;100774.88;10276801;28;20078;-74
2021/04/24 20:06:34;;;;;;;8.23;4.25;;;;;;;12.80;41.69;100790.59;10274610;28;20766;-71
2021/04/24 20:11:35;;;;;;;8.13;5.07;;;;;;;12.50;42.34;100806.28;10282105;28;20213;-71
2021/04/24 20:16:35;;;;;;;6.20;4.90;;;;;;;12.30;42.87;100807.88;10281655;28;20069;-72
2021/04/24 20:21:37;;;;;;;5.68;4.80;;;;;;;12.13;43.71;100808.34;10275410;28;20145;-71
2021/04/24 20:26:38;;;;;;;7.68;5.13;;;;;;;12.21;42.93;100811.28;10281735;28;20090;-71
2021/04/24 20:31:39;;;;;;;7.53;5.00;;;;;;;11.97;43.79;100804.19;10279758;28;20050;-73
2021/04/24 20:36:40;;;;;;;6.07;4.88;;;;;;;11.94;43.96;100820.44;10275285;28;20191;-72
2021/04/24 20:41:42;;;;;;;7.18;5.43;;;;;;;11.72;44.75;100812.38;10281103;28;20129;-74
2021/04/24 20:46:42;;;;;;;11.52;6.20;;;;;;;11.64;44.38;100824.47;10282385;28;20198;-72
2021/04/24 20:51:44;;;;;;;8.85;5.95;;;;;;;11.67;44.43;100824.22;10282380;28;20050;-70
2021/04/24 20:56:48;;;;;;;7.10;5.40;;;;;;;11.72;44.35;100831.03;10302815;28;20132;-72
2021/04/24 21:01:49;;;;;;;13.77;8.35;;;;;;;11.62;44.59;100837.06;10277714;28;20553;-72
2021/04/24 21:06:51;;;;;;;6.93;5.57;;;;;;;11.44;44.18;100819.78;10263934;23;20066;-67
2021/04/24 21:11:51;;;;;;;6.03;5.13;;;;;;;11.43;44.25;100839.44;10250676;28;20059;-70
2021/04/24 21:16:52;;;;;;;11.25;6.43;;;;;;;11.15;45.16;100820.13;10240413;28;20057;-68
2021/04/24 21:21:53;;;;;;;7.43;5.63;;;;;;;11.32;44.81;100835.75;10234157;28;20110;-71
2021/04/24 21:26:55;;;;;;;7.28;5.65;;;;;;;11.09;45.27;100817.94;10230175;28;20043;-70
2021/04/24 21:31:58;;;;;;;7.00;5.60;;;;;;;10.98;45.16;100809.91;10234132;28;20054;-68
2021/04/24 21:37:00;;;;;;;8.27;5.72;;;;;;;10.99;45.01;100828.44;10232828;28;20571;-71
2021/04/24 21:42:01;;;;;;;9.35;6.35;;;;;;;10.88;45.27;100813.22;10229279;28;20119;-69
2021/04/24 21:47:02;;;;;;;6.97;5.30;;;;;;;10.99;45.29;100823.09;10228357;28;20710;-68
2021/04/24 21:52:03;;;;;;;9.90;6.78;;;;;;;10.79;45.59;100816.53;10232293;28;20077;-67
2021/04/24 21:57:05;;;;;;;7.45;5.82;;;;;;;10.79;45.19;100821.88;10234809;28;20082;-69
2021/04/24 22:02:06;;;;;;;7.57;5.60;;;;;;;10.75;45.33;100815.09;10233191;28;22308;-71
2021/04/24 22:07:07;;;;;;;7.57;5.75;;;;;;;10.85;45.23;100821.41;10267241;28;20043;-69
2021/04/24 22:12:08;;;;;;;7.55;5.40;;;;;;;10.68;45.84;100809.34;10283161;28;20064;-69
2021/04/24 22:17:09;;;;;;;7.60;5.53;;;;;;;10.87;45.51;100824.84;10272776;28;20421;-71
2021/04/24 22:22:10;;;;;;;9.23;7.25;;;;;;;10.68;45.77;100811.16;10278360;28;20058;-70
2021/04/24 22:27:11;;;;;;;8.00;6.47;;;;;;;10.82;45.81;100826.13;10278307;28;20078;-70
2021/04/24 22:32:12;;;;;;;7.88;5.43;;;;;;;10.83;45.60;100825.19;10275632;28;20117;-71
2021/04/24 22:37:13;;;;;;;7.72;5.30;;;;;;;10.79;45.13;100836.06;10274376;28;20047;-70
2021/04/24 22:42:14;;;;;;;9.00;5.93;;;;;;;10.76;45.46;100822.97;10275396;28;20094;-69
2021/04/24 22:47:15;;;;;;;6.47;4.90;;;;;;;10.65;45.04;100830.84;10267232;28;20059;-68
2021/04/24 22:52:16;;;;;;;7.45;5.28;;;;;;;10.61;45.45;100840.88;10267404;28;20502;-69
2021/04/24 22:57:17;;;;;;;10.10;5.70;;;;;;;10.60;45.19;100833.84;10271250;28;20051;-69
2021/04/24 23:02:18;;;;;;;10.40;6.03;;;;;;;10.64;45.07;100842.47;10265234;28;20047;-69
2021/04/24 23:07:19;;;;;;;7.05;4.80;;;;;;;10.46;45.37;100836.63;10268570;28;20137;-69
2021/04/24 23:12:20;;;;;;;9.13;5.10;;;;;;;10.49;45.25;100847.06;10263738;28;20117;-68